Time;durP1;ratioP1;P1;durP2;ratioP2;P2;SDS_P1;SDS_P2;PMS_P1;PMS_P2;Temp;Humidity;BMP_temperature;BMP_pressure;BME280_temperature;BME280_humidity;BME280_pressure;Samples;Min_cycle;Max_cycle;Signal;HPM_P1;HPM_P2
2021/11/29 00:01:45;;;;;;;6.40;3.83;;;2.50;99.90;;;;;;4951791;29;20030;-82
2021/11/29 00:04:11;;;;;;;6.90;3.30;;;2.40;99.90;;;;;;4952319;28;20034;-82
2021/11/29 00:06:37;;;;;;;6.82;3.38;;;2.40;99.90;;;;;;4951330;28;20030;-83
2021/11/29 00:09:03;;;;;;;9.52;3.13;;;2.40;99.90;;;;;;4953506;28;20023;-82
2021/11/29 00:11:29;;;;;;;5.40;3.00;;;2.50;99.90;;;;;;4951593;29;20114;-82
2021/11/29 00:13:54;;;;;;;5.75;3.67;;;2.50;99.90;;;;;;4951559;28;20139;-83
2021/11/29 00:16:20;;;;;;;7.18;3.47;;;2.50;99.90;;;;;;4938563;29;20046;-81
2021/11/29 00:18:46;;;;;;;5.00;2.60;;;2.60;99.90;;;;;;4955466;28;20020;-82
2021/11/29 00:21:13;;;;;;;10.45;3.40;;;2.50;99.90;;;;;;4954772;28;20023;-81
2021/11/29 00:23:40;;;;;;;7.28;3.47;;;2.50;99.90;;;;;;4955324;28;20054;-83
2021/11/29 00:26:06;;;;;;;5.35;2.90;;;2.60;99.90;;;;;;4955590;28;20027;-81
2021/11/29 00:28:32;;;;;;;6.22;3.72;;;2.60;99.90;;;;;;4955537;28;20050;-81
2021/11/29 00:30:58;;;;;;;5.78;2.80;;;2.60;99.90;;;;;;4955676;28;20048;-81
2021/11/29 00:33:23;;;;;;;6.63;2.75;;;2.70;99.90;;;;;;4954716;28;20554;-81
2021/11/29 00:35:50;;;;;;;6.18;3.15;;;2.70;99.90;;;;;;4955204;28;20062;-80
2021/11/29 00:38:15;;;;;;;5.10;2.63;;;2.70;99.90;;;;;;4955176;29;20023;-78
2021/11/29 00:40:42;;;;;;;4.05;2.50;;;2.70;99.90;;;;;;4954348;28;20023;-78
2021/11/29 00:43:08;;;;;;;4.43;2.35;;;2.70;99.90;;;;;;4955414;29;20051;-78
2021/11/29 00:45:34;;;;;;;3.83;2.30;;;2.70;99.90;;;;;;4954630;29;20063;-79
2021/11/29 00:48:00;;;;;;;5.35;2.38;;;2.70;99.90;;;;;;4954479;28;20030;-78
2021/11/29 00:50:25;;;;;;;4.10;2.40;;;2.70;99.90;;;;;;4954976;29;20443;-79
2021/11/29 00:52:52;;;;;;;3.47;2.25;;;2.70;99.90;;;;;;4955215;28;20114;-82
2021/11/29 00:55:18;;;;;;;3.13;1.88;;;2.70;99.90;;;;;;4954285;29;20019;-82
2021/11/29 00:57:45;;;;;;;3.38;2.08;;;2.70;99.90;;;;;;4954635;28;20035;-81
2021/11/29 01:00:19;;;;;;;3.92;2.17;;;2.70;99.90;;;;;;4955940;28;20023;-81
2021/11/29 01:02:46;;;;;;;3.83;2.08;;;2.70;99.90;;;;;;4954043;28;20470;-81
2021/11/29 01:05:11;;;;;;;5.05;2.00;;;2.70;99.90;;;;;;4954786;29;20114;-80
2021/11/29 01:07:38;;;;;;;3.33;2.20;;;2.70;99.90;;;;;;4954596;28;20046;-81
2021/11/29 01:10:06;;;;;;;3.38;1.70;;;2.70;99.90;;;;;;4955363;28;20039;-82
2021/11/29 01:12:32;;;;;;;8.73;2.92;;;2.70;99.90;;;;;;4954188;29;20055;-82
2021/11/29 01:14:58;;;;;;;2.03;1.48;;;2.70;99.90;;;;;;4954938;29;20019;-82
2021/11/29 01:17:23;;;;;;;3.83;2.17;;;2.60;99.90;;;;;;4955034;28;20038;-80
2021/11/29 01:19:49;;;;;;;5.05;1.65;;;2.60;99.90;;;;;;4955817;28;20070;-79
2021/11/29 01:22:15;;;;;;;3.92;2.28;;;2.60;99.90;;;;;;4955412;28;20031;-79
2021/11/29 01:24:41;;;;;;;3.17;1.70;;;2.60;99.90;;;;;;4953680;28;20468;-78
2021/11/29 01:27:08;;;;;;;1.83;1.60;;;2.70;99.90;;;;;;4954478;28;20031;-82
2021/11/29 01:29:34;;;;;;;2.72;1.63;;;2.70;99.90;;;;;;4953386;28;20435;-82
2021/11/29 01:32:00;;;;;;;1.50;1.10;;;2.60;99.90;;;;;;4954033;29;20035;-82
2021/11/29 01:34:26;;;;;;;2.58;1.52;;;2.60;99.90;;;;;;4954136;29;20038;-81
2021/11/29 01:36:51;;;;;;;2.15;1.40;;;2.70;99.90;;;;;;4954918;28;20133;-81
2021/11/29 01:39:17;;;;;;;3.10;1.45;;;2.60;99.90;;;;;;4955244;28;20032;-76
2021/11/29 01:41:44;;;;;;;1.35;1.15;;;2.60;99.90;;;;;;4953743;28;20023;-78
2021/11/29 01:44:10;;;;;;;1.13;1.05;;;2.60;99.90;;;;;;4953573;29;20106;-77
2021/11/29 01:46:36;;;;;;;1.30;1.17;;;2.60;99.90;;;;;;4953968;29;20034;-77
2021/11/29 01:49:03;;;;;;;2.05;1.00;;;2.70;99.90;;;;;;4954252;28;20020;-77
2021/11/29 01:51:28;;;;;;;3.70;1.17;;;2.60;99.90;;;;;;4952828;28;20051;-77
2021/11/29 01:53:54;;;;;;;2.40;1.10;;;2.60;99.90;;;;;;4953951;29;20130;-77
2021/11/29 01:56:20;;;;;;;2.63;1.02;;;2.60;99.90;;;;;;4953675;28;20488;-77
2021/11/29 01:58:45;;;;;;;1.30;1.20;;;2.60;99.90;;;;;;4954266;28;20023;-78
2021/11/29 02:01:15;;;;;;;1.50;0.98;;;2.70;99.90;;;;;;4955170;28;20097;-76
2021/11/29 02:03:43;;;;;;;3.90;2.55;;;2.70;99.90;;;;;;4953984;29;20032;-75
2021/11/29 02:06:10;;;;;;;1.08;1.02;;;2.70;99.90;;;;;;4953221;29;20015;-75
2021/11/29 02:08:36;;;;;;;3.65;1.40;;;2.60;99.90;;;;;;4953309;28;20031;-75
2021/11/29 02:11:02;;;;;;;3.35;1.55;;;2.60;99.90;;;;;;4953486;28;20543;-77
2021/11/29 02:13:28;;;;;;;1.58;1.13;;;2.70;99.90;;;;;;4952891;29;20031;-76
2021/11/29 02:15:54;;;;;;;2.20;1.30;;;2.60;99.90;;;;;;4953522;29;20379;-77
2021/11/29 02:18:26;;;;;;;1.90;1.20;;;2.60;99.90;;;;;;4954494;28;20138;-77
2021/11/29 02:21:04;;;;;;;2.90;1.50;;;2.60;99.90;;;;;;4952901;29;20023;-77
2021/11/29 02:23:30;;;;;;;3.65;1.17;;;2.60;99.90;;;;;;4953049;29;20182;-77
2021/11/29 02:25:56;;;;;;;1.00;1.00;;;2.60;99.90;;;;;;4952627;29;20026;-77
2021/11/29 02:28:23;;;;;;;1.83;1.20;;;2.60;99.90;;;;;;4953466;28;20032;-77
2021/11/29 02:30:49;;;;;;;3.03;1.45;;;2.60;99.90;;;;;;4953133;28;20020;-78
2021/11/29 02:33:15;;;;;;;2.65;1.27;;;2.50;99.90;;;;;;4954715;28;20134;-77
2021/11/29 02:35:41;;;;;;;2.70;1.75;;;2.60;99.90;;;;;;4953295;29;20451;-78
2021/11/29 02:38:06;;;;;;;2.92;1.30;;;2.50;99.90;;;;;;4952815;28;20062;-78
2021/11/29 02:40:33;;;;;;;5.20;1.40;;;2.50;99.90;;;;;;4952177;29;20524;-78
2021/11/29 02:42:59;;;;;;;2.50;1.80;;;2.60;99.90;;;;;;4954266;28;20036;-76
2021/11/29 02:45:26;;;;;;;2.58;1.52;;;2.50;99.90;;;;;;4952817;29;20023;-79
2021/11/29 02:47:51;;;;;;;2.65;1.48;;;2.50;99.90;;;;;;4952681;29;20038;-77
2021/11/29 02:50:17;;;;;;;1.85;1.50;;;2.50;99.90;;;;;;4953967;28;20082;-78
2021/11/29 02:52:43;;;;;;;3.15;1.63;;;2.50;99.90;;;;;;4951894;29;20054;-78
2021/11/29 02:55:10;;;;;;;1.58;1.15;;;2.50;99.90;;;;;;4950730;29;20038;-77
2021/11/29 02:57:35;;;;;;;1.52;1.27;;;2.50;99.90;;;;;;4956072;28;20027;-78
2021/11/29 03:00:06;;;;;;;1.38;1.00;;;2.50;99.90;;;;;;4954310;28;20126;-78
2021/11/29 03:02:32;;;;;;;3.00;1.80;;;2.50;99.90;;;;;;4951475;29;20078;-78
2021/11/29 03:04:58;;;;;;;1.25;1.10;;;2.40;99.90;;;;;;4952755;29;20019;-77
2021/11/29 03:07:24;;;;;;;2.00;1.20;;;2.50;99.90;;;;;;4952992;29;20028;-77
2021/11/29 03:09:50;;;;;;;2.15;1.15;;;2.40;99.90;;;;;;4952093;29;20042;-77
2021/11/29 03:12:16;;;;;;;4.93;2.10;;;2.40;99.90;;;;;;4953671;29;20031;-77
2021/11/29 03:14:42;;;;;;;1.70;1.13;;;2.40;99.90;;;;;;4952602;29;20027;-77
2021/11/29 03:17:08;;;;;;;2.55;1.27;;;2.40;99.90;;;;;;4953279;29;20038;-78
2021/11/29 03:19:36;;;;;;;3.22;1.27;;;2.40;99.90;;;;;;4952372;29;20121;-77
2021/11/29 03:22:06;;;;;;;2.35;1.17;;;2.40;99.90;;;;;;4952257;29;20019;-77
2021/11/29 03:24:32;;;;;;;0.95;0.95;;;2.40;99.90;;;;;;4952319;29;20035;-78
2021/11/29 03:26:58;;;;;;;2.33;1.50;;;2.40;99.90;;;;;;4952861;29;20472;-77
2021/11/29 03:29:24;;;;;;;2.33;1.90;;;2.40;99.90;;;;;;4952070;29;20363;-77
2021/11/29 03:31:52;;;;;;;1.80;0.90;;;2.30;99.90;;;;;;4952426;29;20032;-77
2021/11/29 03:34:20;;;;;;;5.93;2.38;;;2.30;99.90;;;;;;4953812;29;20137;-77
2021/11/29 03:36:46;;;;;;;2.17;1.27;;;2.40;99.90;;;;;;4951511;29;20035;-77
2021/11/29 03:39:16;;;;;;;1.77;1.10;;;2.40;99.90;;;;;;4952399;29;20186;-78
2021/11/29 03:41:42;;;;;;;1.83;1.27;;;2.40;99.90;;;;;;4952221;28;20035;-78
2021/11/29 03:44:08;;;;;;;1.00;0.90;;;2.40;99.90;;;;;;4951880;29;20495;-77
2021/11/29 03:46:35;;;;;;;4.15;1.23;;;2.40;99.90;;;;;;4952077;29;20059;-76
2021/11/29 03:49:00;;;;;;;1.35;1.10;;;2.40;99.90;;;;;;4952972;28;20460;-76
2021/11/29 03:51:26;;;;;;;2.47;1.10;;;2.40;99.90;;;;;;4955112;29;20033;-76
2021/11/29 03:53:52;;;;;;;1.60;1.05;;;2.40;99.90;;;;;;4956412;29;20023;-76
2021/11/29 03:56:18;;;;;;;0.95;0.80;;;2.40;99.90;;;;;;4957248;29;20035;-76
2021/11/29 03:58:43;;;;;;;1.17;0.90;;;2.40;99.90;;;;;;4955164;29;20031;-76
2021/11/29 04:01:09;;;;;;;2.35;1.02;;;2.40;99.90;;;;;;4957485;29;20412;-76
2021/11/29 04:03:35;;;;;;;0.98;0.90;;;2.40;99.90;;;;;;4955660;29;20023;-75
2021/11/29 04:06:00;;;;;;;2.03;0.90;;;2.40;99.90;;;;;;4956658;29;20031;-75
2021/11/29 04:08:26;;;;;;;0.98;0.93;;;2.40;99.90;;;;;;4956843;29;20019;-75
2021/11/29 04:10:53;;;;;;;1.55;0.90;;;2.40;99.90;;;;;;4956280;29;20066;-75
2021/11/29 04:13:18;;;;;;;2.10;1.00;;;2.30;99.90;;;;;;4955070;29;20023;-75
2021/11/29 04:15:44;;;;;;;0.95;0.90;;;2.30;99.90;;;;;;4955610;29;20469;-76
2021/11/29 04:18:10;;;;;;;2.88;1.40;;;2.30;99.90;;;;;;4955833;29;20027;-75
2021/11/29 04:20:35;;;;;;;2.03;1.20;;;2.30;99.90;;;;;;4955957;29;20027;-76
2021/11/29 04:23:01;;;;;;;4.55;1.52;;;2.30;99.90;;;;;;4955509;28;20043;-76
2021/11/29 04:25:33;;;;;;;1.92;1.10;;;2.20;99.90;;;;;;4954583;29;20094;-75
2021/11/29 04:27:59;;;;;;;2.45;1.20;;;2.20;99.90;;;;;;4955749;29;20109;-76
2021/11/29 04:30:26;;;;;;;1.70;1.23;;;2.30;99.90;;;;;;4955189;29;20039;-75
2021/11/29 04:32:55;;;;;;;3.03;1.20;;;2.20;99.90;;;;;;4955176;29;20019;-75
2021/11/29 04:35:21;;;;;;;1.40;1.30;;;2.30;99.90;;;;;;4955367;29;20458;-76
2021/11/29 04:37:46;;;;;;;3.47;1.23;;;2.30;99.90;;;;;;4955095;29;20118;-76
2021/11/29 04:40:13;;;;;;;1.50;1.20;;;2.20;99.90;;;;;;4954594;29;20027;-76
2021/11/29 04:42:39;;;;;;;2.50;1.30;;;2.30;99.90;;;;;;4956525;29;20027;-76
2021/11/29 04:45:06;;;;;;;3.08;2.38;;;2.20;99.90;;;;;;4955196;29;20034;-76
2021/11/29 04:47:32;;;;;;;2.90;1.50;;;2.30;99.90;;;;;;4954214;29;20042;-75
2021/11/29 04:49:57;;;;;;;1.40;1.20;;;2.20;99.90;;;;;;4956479;29;20023;-76
2021/11/29 04:52:23;;;;;;;1.30;1.20;;;2.20;99.90;;;;;;4954903;28;20035;-75
2021/11/29 04:54:49;;;;;;;5.18;2.08;;;2.30;99.90;;;;;;4954267;29;20027;-75
2021/11/29 04:57:14;;;;;;;2.22;1.35;;;2.30;99.90;;;;;;4954754;29;20422;-76
2021/11/29 04:59:40;;;;;;;1.95;1.35;;;2.30;99.90;;;;;;4954607;29;20110;-76
2021/11/29 05:02:06;;;;;;;1.90;1.40;;;2.30;99.90;;;;;;4955798;28;20035;-76
2021/11/29 05:04:32;;;;;;;2.00;1.40;;;2.30;99.90;;;;;;4951433;28;20036;-75
2021/11/29 05:06:57;;;;;;;1.67;1.58;;;2.30;99.90;;;;;;4960281;28;20030;-77
2021/11/29 05:09:23;;;;;;;2.10;1.60;;;2.30;99.90;;;;;;4955019;28;20034;-77
2021/11/29 05:11:49;;;;;;;2.50;1.30;;;2.20;99.90;;;;;;4954001;29;20372;-77
2021/11/29 05:14:15;;;;;;;2.22;1.58;;;2.20;99.90;;;;;;4952818;28;20023;-76
2021/11/29 05:16:41;;;;;;;3.22;1.50;;;2.30;99.90;;;;;;4946193;28;20042;-78
2021/11/29 05:19:07;;;;;;;3.13;1.45;;;2.30;99.90;;;;;;4953905;28;20033;-77
2021/11/29 05:21:33;;;;;;;1.58;1.40;;;2.30;99.90;;;;;;4952011;29;20453;-77
2021/11/29 05:24:00;;;;;;;2.13;1.40;;;2.30;99.90;;;;;;4954214;28;20440;-78
2021/11/29 05:26:26;;;;;;;4.80;1.88;;;2.30;99.90;;;;;;4952393;29;20057;-78
2021/11/29 05:28:52;;;;;;;2.85;1.50;;;2.30;99.90;;;;;;4952075;29;20020;-81
2021/11/29 05:31:19;;;;;;;4.40;1.48;;;2.30;99.90;;;;;;4949612;28;20031;-81
2021/11/29 05:33:45;;;;;;;1.92;1.48;;;2.20;99.90;;;;;;4953660;29;20035;-81
2021/11/29 05:36:11;;;;;;;1.98;1.40;;;2.20;99.90;;;;;;4946930;28;20499;-85
2021/11/29 05:38:37;;;;;;;3.90;1.60;;;2.30;99.90;;;;;;4949990;29;20020;-82
2021/11/29 05:41:03;;;;;;;5.22;1.73;;;2.20;99.90;;;;;;4953176;29;20444;-87
2021/11/29 05:43:30;;;;;;;1.52;1.40;;;2.30;99.90;;;;;;4952602;29;20086;-82
2021/11/29 05:45:57;;;;;;;4.72;1.33;;;2.30;99.90;;;;;;4953937;29;20085;-87
2021/11/29 05:48:23;;;;;;;3.58;1.50;;;2.20;99.90;;;;;;4953065;28;20031;-82
2021/11/29 05:50:49;;;;;;;4.93;1.73;;;2.30;99.90;;;;;;4954030;28;20021;-78
2021/11/29 05:53:15;;;;;;;3.47;1.50;;;2.30;99.90;;;;;;4952341;29;20020;-76
2021/11/29 05:55:40;;;;;;;2.15;1.40;;;2.30;99.90;;;;;;4953265;29;20549;-77
2021/11/29 05:58:06;;;;;;;1.50;1.40;;;2.30;99.90;;;;;;4953232;29;20031;-76
2021/11/29 06:00:32;;;;;;;3.95;2.30;;;2.20;99.90;;;;;;4951406;29;20063;-83
2021/11/29 06:02:59;;;;;;;4.72;1.75;;;2.30;99.90;;;;;;4953626;28;20050;-83
2021/11/29 06:05:25;;;;;;;4.10;1.58;;;2.20;99.90;;;;;;4951248;29;20078;-75
2021/11/29 17:49:33;;;;;;;6.82;4.15;;;5.40;99.90;;;;;;5504289;23;20097;-77
2021/11/29 17:52:00;;;;;;;5.50;3.67;;;5.40;99.90;;;;;;4954260;28;20031;-77
2021/11/29 17:54:26;;;;;;;6.97;5.38;;;5.40;99.90;;;;;;4953867;29;20034;-82
2021/11/29 17:56:53;;;;;;;5.10;4.55;;;5.40;99.90;;;;;;4953348;28;20042;-82
2021/11/29 17:59:19;;;;;;;4.93;4.00;;;5.40;99.90;;;;;;4953986;28;20026;-80
2021/11/29 18:01:45;;;;;;;4.90;3.50;;;5.40;99.90;;;;;;4952272;28;20027;-80
2021/11/29 18:04:12;;;;;;;4.78;3.42;;;5.40;99.90;;;;;;4955939;28;20035;-85
2021/11/29 18:07:25;;;;;;;3.63;2.90;;;5.40;99.90;;;;;;4943589;28;20015;-80
2021/11/29 18:09:56;;;;;;;3.50;2.92;;;5.40;99.90;;;;;;4942808;29;20070;-80
2021/11/29 18:12:36;;;;;;;6.07;3.78;;;5.40;99.90;;;;;;4952407;28;20109;-79
2021/11/29 18:15:09;;;;;;;5.43;3.63;;;5.40;99.90;;;;;;4951487;28;20027;-80
2021/11/29 18:17:35;;;;;;;5.47;3.85;;;5.40;99.90;;;;;;4949057;28;20384;-81
2021/11/29 18:20:02;;;;;;;4.05;3.47;;;5.40;99.90;;;;;;4950601;28;20055;-82
2021/11/29 18:22:28;;;;;;;3.75;3.33;;;5.40;99.90;;;;;;4950684;28;20078;-77
2021/11/29 18:24:56;;;;;;;4.30;3.28;;;5.40;99.90;;;;;;4947494;28;20015;-78
2021/11/29 18:27:24;;;;;;;4.00;3.15;;;5.40;99.90;;;;;;4949208;28;20401;-82
2021/11/29 18:29:50;;;;;;;4.60;3.10;;;5.40;99.90;;;;;;4950108;28;20038;-84
2021/11/29 18:32:15;;;;;;;6.82;4.03;;;5.40;99.90;;;;;;4950866;28;20035;-82
2021/11/29 18:34:41;;;;;;;5.72;3.10;;;5.30;99.90;;;;;;4948954;28;20026;-81
2021/11/29 18:37:07;;;;;;;6.70;3.88;;;5.30;99.90;;;;;;4951169;28;20097;-84
2021/11/29 18:39:32;;;;;;;5.15;3.83;;;5.30;99.90;;;;;;4948691;29;20078;-81
2021/11/29 18:41:58;;;;;;;5.45;3.90;;;5.30;99.90;;;;;;4951224;29;20027;-79
2021/11/29 18:44:38;;;;;;;6.57;4.63;;;5.30;99.90;;;;;;4949708;28;20114;-81
2021/11/29 18:47:24;;;;;;;9.30;5.60;;;5.30;99.90;;;;;;4928821;29;20048;-79
2021/11/29 18:49:50;;;;;;;9.35;6.80;;;5.40;99.90;;;;;;4946869;28;20047;-80
2021/11/29 18:52:16;;;;;;;10.63;6.30;;;5.40;99.90;;;;;;4953443;28;20072;-91
2021/11/29 18:54:42;;;;;;;7.88;5.25;;;5.40;99.90;;;;;;4951965;28;20029;-76
2021/11/29 18:57:07;;;;;;;5.47;4.20;;;5.50;99.90;;;;;;4951220;28;20039;-89
2021/11/29 18:59:33;;;;;;;9.95;7.57;;;5.50;99.90;;;;;;4953704;28;20431;-84
2021/11/29 19:01:59;;;;;;;9.90;7.07;;;5.50;99.90;;;;;;4952108;28;20054;-84
2021/11/29 19:04:25;;;;;;;6.22;5.20;;;5.60;99.90;;;;;;4950777;28;20035;-81
2021/11/29 19:06:51;;;;;;;8.00;4.10;;;5.60;99.90;;;;;;4949134;29;20397;-82
2021/11/29 19:09:17;;;;;;;3.53;3.22;;;5.60;99.90;;;;;;4949230;28;20027;-82
2021/11/29 19:11:43;;;;;;;4.78;3.60;;;5.60;99.90;;;;;;4948683;28;20573;-82
2021/11/29 19:14:08;;;;;;;6.93;4.78;;;5.60;99.90;;;;;;4953806;28;20552;-85
2021/11/29 19:16:35;;;;;;;5.13;4.55;;;5.50;99.90;;;;;;4950651;29;20031;-87
2021/11/29 19:19:02;;;;;;;6.47;4.10;;;5.50;99.90;;;;;;4952283;28;20588;-88
2021/11/29 19:21:29;;;;;;;5.20;3.90;;;5.50;99.90;;;;;;4949523;29;20549;-86
2021/11/29 19:23:54;;;;;;;4.72;3.60;;;5.50;99.90;;;;;;4950473;28;20027;-82
2021/11/29 19:26:22;;;;;;;5.28;4.18;;;5.60;99.90;;;;;;4946114;28;20035;-81
2021/11/29 19:28:49;;;;;;;4.57;4.05;;;5.60;99.90;;;;;;4929000;29;20039;-80
2021/11/29 19:31:16;;;;;;;6.03;3.88;;;5.70;99.90;;;;;;4931661;29;20031;-81
2021/11/29 19:33:41;;;;;;;4.78;3.50;;;5.70;99.90;;;;;;4940315;28;20031;-82
2021/11/29 19:36:07;;;;;;;4.55;2.95;;;5.70;99.90;;;;;;4960095;28;20031;-80
2021/11/29 19:38:33;;;;;;;5.25;3.10;;;5.80;99.90;;;;;;4950292;28;20036;-85
2021/11/29 19:43:33;;;;;;;4.75;3.15;;;5.80;99.90;;;;;;4949866;28;20117;-83
2021/11/29 19:45:59;;;;;;;3.90;2.58;;;5.80;99.90;;;;;;4932436;29;20396;-83
2021/11/29 19:48:27;;;;;;;3.63;2.72;;;5.80;99.90;;;;;;4930843;29;20047;-83
2021/11/29 19:50:54;;;;;;;2.85;2.58;;;5.80;99.90;;;;;;4929387;29;20119;-82
2021/11/29 19:53:21;;;;;;;3.90;2.65;;;5.80;99.90;;;;;;4956863;28;20753;-83
2021/11/29 19:55:46;;;;;;;4.90;2.88;;;5.80;99.90;;;;;;4969219;28;20023;-83
2021/11/29 19:58:12;;;;;;;4.28;2.67;;;5.70;99.90;;;;;;4969765;28;20526;-84
2021/11/29 20:00:38;;;;;;;2.47;2.28;;;5.70;99.90;;;;;;4961668;28;20331;-89
2021/11/29 20:03:04;;;;;;;2.53;2.33;;;5.60;99.90;;;;;;4948440;29;20399;-84
2021/11/29 20:05:30;;;;;;;5.97;3.33;;;5.60;99.90;;;;;;4949432;28;20027;-81
2021/11/29 20:07:55;;;;;;;6.57;3.33;;;5.60;99.90;;;;;;4948618;29;20042;-82
2021/11/29 20:10:25;;;;;;;5.93;2.83;;;5.60;99.90;;;;;;4950183;29;20019;-83
2021/11/29 20:13:00;;;;;;;3.58;2.90;;;5.60;99.90;;;;;;4950091;28;20027;-84
2021/11/29 20:15:30;;;;;;;5.30;3.03;;;5.70;99.90;;;;;;4949841;28;20030;-84
2021/11/29 20:17:56;;;;;;;4.43;2.78;;;5.70;99.90;;;;;;4949798;29;20470;-83
2021/11/29 20:20:22;;;;;;;4.18;3.17;;;5.60;99.90;;;;;;4949875;28;20055;-78
2021/11/29 20:22:47;;;;;;;5.30;3.05;;;5.70;99.90;;;;;;4949670;28;20070;-82
2021/11/29 20:25:17;;;;;;;2.55;2.35;;;5.70;99.90;;;;;;4948170;28;20046;-80
2021/11/29 20:27:43;;;;;;;2.90;2.60;;;5.70;99.90;;;;;;4948519;28;20027;-82
2021/11/29 20:30:10;;;;;;;4.13;2.90;;;5.60;99.90;;;;;;4947152;28;20383;-83
2021/11/29 20:32:36;;;;;;;3.83;2.47;;;5.60;99.90;;;;;;4956080;28;20039;-80
2021/11/29 20:35:02;;;;;;;4.70;2.38;;;5.60;99.90;;;;;;4958094;28;20031;-78
2021/11/29 20:37:28;;;;;;;4.20;2.45;;;5.60;99.90;;;;;;4952419;28;20047;-77
2021/11/29 20:39:55;;;;;;;3.15;2.45;;;5.50;99.90;;;;;;4950864;29;20093;-77
2021/11/29 20:42:21;;;;;;;7.22;3.03;;;5.60;99.90;;;;;;4952583;29;20020;-77
2021/11/29 20:44:47;;;;;;;10.65;6.55;;;5.60;99.90;;;;;;4953045;29;20027;-77
2021/11/29 20:47:14;;;;;;;5.07;3.75;;;5.50;99.90;;;;;;4954067;28;21870;-77
2021/11/29 20:49:41;;;;;;;6.13;2.70;;;5.60;99.90;;;;;;4954529;28;20043;-78
2021/11/29 20:52:07;;;;;;;5.32;3.20;;;5.50;99.90;;;;;;4956194;28;20038;-78
2021/11/29 20:54:33;;;;;;;4.03;3.15;;;5.50;99.90;;;;;;4954494;28;20027;-80
2021/11/29 20:56:58;;;;;;;5.03;2.40;;;5.50;99.90;;;;;;4957994;28;20035;-80
2021/11/29 20:59:24;;;;;;;4.63;2.40;;;5.50;99.90;;;;;;4952647;28;20027;-81
2021/11/29 21:01:50;;;;;;;6.78;4.03;;;5.50;99.90;;;;;;4962472;28;20475;-78
2021/11/29 21:04:16;;;;;;;7.07;3.72;;;5.50;99.90;;;;;;4955292;29;20038;-78
2021/11/29 21:06:43;;;;;;;6.57;4.40;;;5.60;99.90;;;;;;4954470;29;20027;-79
2021/11/29 21:09:09;;;;;;;13.20;8.52;;;5.60;99.90;;;;;;4956452;28;20504;-81
2021/11/29 21:11:37;;;;;;;17.85;11.35;;;5.60;99.90;;;;;;4954632;29;20026;-79
2021/11/29 21:14:04;;;;;;;13.70;8.43;;;5.70;99.90;;;;;;4954395;28;20038;-78
2021/11/29 21:16:32;;;;;;;9.05;6.00;;;5.70;99.90;;;;;;4956032;28;20491;-81
2021/11/29 21:18:58;;;;;;;8.80;5.75;;;5.70;99.90;;;;;;4955170;28;20090;-80
2021/11/29 21:21:23;;;;;;;11.75;7.05;;;5.70;99.90;;;;;;4954147;28;20428;-79
2021/11/29 21:23:49;;;;;;;20.17;11.20;;;5.80;99.90;;;;;;4955038;28;20030;-79
2021/11/29 21:26:15;;;;;;;11.90;6.22;;;5.70;99.90;;;;;;4955423;28;20023;-78
2021/11/29 21:28:41;;;;;;;4.10;2.97;;;5.80;99.90;;;;;;4953828;29;20027;-79
2021/11/29 21:31:07;;;;;;;5.57;2.78;;;5.70;99.90;;;;;;4955747;28;20094;-80
2021/11/29 21:33:33;;;;;;;4.60;2.70;;;5.70;99.90;;;;;;4954157;28;20027;-80
2021/11/29 21:35:58;;;;;;;6.55;3.20;;;5.70;99.90;;;;;;4953956;28;20389;-80
2021/11/29 21:38:26;;;;;;;9.88;3.90;;;5.70;99.90;;;;;;4955854;28;20039;-80
2021/11/29 21:40:53;;;;;;;10.02;3.70;;;5.70;99.90;;;;;;4954792;28;20020;-85
2021/11/29 21:43:19;;;;;;;8.73;3.88;;;5.70;99.90;;;;;;4953622;28;20031;-80
2021/11/29 21:45:44;;;;;;;5.28;3.17;;;5.70;99.90;;;;;;4954404;28;20034;-80
2021/11/29 21:48:10;;;;;;;7.80;3.42;;;5.70;99.90;;;;;;4953982;28;20503;-80
2021/11/29 21:50:36;;;;;;;8.13;4.07;;;5.70;99.90;;;;;;4953519;28;20483;-80
2021/11/29 21:53:02;;;;;;;7.57;4.28;;;5.70;99.90;;;;;;4954145;29;20027;-85
2021/11/29 21:55:29;;;;;;;4.97;3.25;;;5.80;99.90;;;;;;4953417;28;20024;-79
2021/11/29 21:57:55;;;;;;;5.90;2.80;;;5.80;99.90;;;;;;4953928;29;20094;-83
2021/11/29 22:00:22;;;;;;;4.25;2.60;;;5.90;99.90;;;;;;4953902;28;20034;-81
2021/11/29 22:02:48;;;;;;;5.32;2.20;;;5.90;99.90;;;;;;4953461;28;20372;-81
2021/11/29 22:05:14;;;;;;;3.75;2.40;;;5.90;99.90;;;;;;4953977;28;20070;-79
2021/11/29 22:07:41;;;;;;;5.07;2.85;;;5.90;99.90;;;;;;4954232;28;20114;-80
2021/11/29 22:10:08;;;;;;;4.95;3.15;;;5.90;99.90;;;;;;4953396;29;20033;-79
2021/11/29 22:12:34;;;;;;;5.78;4.10;;;5.90;99.90;;;;;;4953139;28;20062;-80
2021/11/29 22:14:59;;;;;;;5.95;3.30;;;5.90;99.90;;;;;;4953975;28;20047;-80
2021/11/29 22:17:25;;;;;;;5.25;2.92;;;5.90;99.90;;;;;;4952819;28;20086;-80
2021/11/29 22:19:51;;;;;;;3.63;2.60;;;5.80;99.90;;;;;;4953657;29;20114;-80
2021/11/29 22:22:17;;;;;;;6.60;2.90;;;5.90;99.90;;;;;;4953938;28;20029;-80
2021/11/29 22:24:43;;;;;;;5.72;3.00;;;5.80;99.90;;;;;;4952868;29;20023;-78
2021/11/29 22:27:09;;;;;;;6.90;2.45;;;5.80;99.90;;;;;;4953758;28;20464;-79
2021/11/29 22:29:35;;;;;;;5.07;2.55;;;5.80;99.90;;;;;;4953412;28;20479;-79
2021/11/29 22:32:01;;;;;;;4.88;2.22;;;5.80;99.90;;;;;;4952883;28;20031;-80
2021/11/29 22:34:26;;;;;;;5.50;2.63;;;5.90;99.90;;;;;;4953559;28;20349;-80
2021/11/29 22:36:52;;;;;;;8.27;2.88;;;5.90;99.90;;;;;;4953438;28;20078;-79
2021/11/29 22:39:18;;;;;;;5.70;2.28;;;5.90;99.90;;;;;;4952898;28;20028;-80
2021/11/29 22:41:44;;;;;;;5.80;2.22;;;5.90;99.90;;;;;;4953301;28;20116;-81
2021/11/29 22:44:10;;;;;;;3.25;2.00;;;5.90;99.90;;;;;;4953483;28;20031;-80
2021/11/29 22:46:36;;;;;;;3.58;1.92;;;5.90;99.90;;;;;;4952312;28;20094;-81
2021/11/29 22:49:02;;;;;;;5.38;1.88;;;5.90;99.90;;;;;;4952884;28;20019;-79
2021/11/29 22:51:28;;;;;;;3.85;1.58;;;5.90;99.90;;;;;;4952876;29;20038;-82
2021/11/29 22:53:53;;;;;;;5.90;2.00;;;5.90;99.90;;;;;;4952524;29;20027;-81
2021/11/29 22:56:20;;;;;;;8.75;2.15;;;5.90;99.90;;;;;;4952742;28;20122;-80
2021/11/29 22:58:47;;;;;;;5.15;1.88;;;5.90;99.90;;;;;;4952386;28;20035;-78
2021/11/29 23:01:17;;;;;;;4.68;2.10;;;5.90;99.90;;;;;;4954498;28;20468;-80
2021/11/29 23:03:43;;;;;;;4.57;1.80;;;5.90;99.90;;;;;;4953078;28;20498;-80
2021/11/29 23:06:12;;;;;;;4.13;2.33;;;5.90;99.90;;;;;;4952806;28;20122;-81
2021/11/29 23:08:45;;;;;;;5.70;1.90;;;5.90;99.90;;;;;;4953371;28;20031;-83
2021/11/29 23:11:20;;;;;;;3.88;1.45;;;5.90;99.90;;;;;;4972216;28;20035;-80
2021/11/29 23:13:47;;;;;;;6.53;2.03;;;5.90;99.90;;;;;;4971825;28;20027;-81
2021/11/29 23:16:13;;;;;;;5.22;1.90;;;6.00;99.90;;;;;;4955061;28;20555;-80
2021/11/29 23:18:40;;;;;;;6.72;2.25;;;5.90;99.90;;;;;;4952505;28;20039;-79
2021/11/29 23:21:06;;;;;;;6.32;1.85;;;5.90;99.90;;;;;;4952693;28;20012;-80
2021/11/29 23:23:32;;;;;;;3.97;1.80;;;5.90;99.90;;;;;;4952907;29;20054;-80
2021/11/29 23:25:58;;;;;;;5.07;1.70;;;5.90;99.90;;;;;;4954110;28;20027;-81
2021/11/29 23:28:23;;;;;;;5.75;1.88;;;5.90;99.90;;;;;;4945709;28;20035;-80
2021/11/29 23:30:49;;;;;;;4.57;1.98;;;6.00;99.90;;;;;;4949504;28;20024;-81
2021/11/29 23:33:14;;;;;;;4.57;2.25;;;6.00;99.90;;;;;;4949358;29;20024;-81
2021/11/29 23:35:40;;;;;;;6.03;2.20;;;6.00;99.90;;;;;;4948634;28;20028;-81
2021/11/29 23:38:06;;;;;;;9.45;2.85;;;6.00;99.90;;;;;;4951559;28;20044;-82
2021/11/29 23:40:32;;;;;;;7.55;2.25;;;6.00;99.90;;;;;;4952447;29;20031;-80
2021/11/29 23:43:07;;;;;;;4.05;1.80;;;6.00;99.90;;;;;;4952389;29;20479;-80
2021/11/29 23:45:37;;;;;;;7.22;2.88;;;5.90;99.90;;;;;;4952349;28;20031;-80
2021/11/29 23:48:08;;;;;;;4.88;1.90;;;5.90;99.90;;;;;;4953090;28;20023;-80
2021/11/29 23:50:40;;;;;;;8.02;2.28;;;6.00;99.90;;;;;;4952510;29;20051;-80
2021/11/29 23:53:21;;;;;;;3.70;2.05;;;5.90;99.90;;;;;;4952657;28;20121;-80
2021/11/29 23:55:47;;;;;;;4.13;2.10;;;6.00;99.90;;;;;;4952159;28;20023;-80
2021/11/29 23:58:13;;;;;;;3.78;2.45;;;6.00;99.90;;;;;;4950981;28;20050;-80
